Time;durP1;ratioP1;P1;durP2;ratioP2;P2;SDS_P1;SDS_P2;PMS_P1;PMS_P2;Temp;Humidity;BMP_temperature;BMP_pressure;BME280_temperature;BME280_humidity;BME280_pressure;Samples;Min_cycle;Max_cycle;Signal;HPM_P1;HPM_P2
2021/10/04 00:00:09;;;;;;;6.70;4.83;;;10.30;99.90;9.80;96780.00;;;;5087145;28;20210;-68
2021/10/04 00:02:59;;;;;;;5.00;4.33;;;10.20;99.90;9.50;96783.00;;;;5086558;28;20223;-68
2021/10/04 00:05:48;;;;;;;5.50;4.17;;;10.10;99.90;9.70;96779.00;;;;5086992;28;20724;-68
2021/10/04 00:08:37;;;;;;;10.33;5.23;;;10.10;99.90;9.80;96782.00;;;;5085982;28;20218;-68
2021/10/04 00:11:26;;;;;;;5.17;4.67;;;10.10;99.90;9.70;96782.00;;;;5085689;28;20223;-68
2021/10/04 00:14:15;;;;;;;7.03;4.80;;;10.10;99.90;9.60;96779.00;;;;5083703;28;20808;-68
2021/10/04 00:17:04;;;;;;;4.57;3.97;;;10.10;99.90;9.50;96781.00;;;;5077785;28;20199;-67
2021/10/04 00:19:55;;;;;;;6.30;4.40;;;10.00;99.90;9.70;96784.00;;;;5085855;28;20344;-68
2021/10/04 00:22:44;;;;;;;6.27;4.07;;;10.00;99.90;9.70;96782.00;;;;5086812;28;20654;-68
2021/10/04 00:25:34;;;;;;;6.43;4.87;;;10.00;99.90;9.40;96772.00;;;;5085469;28;20246;-69
2021/10/04 00:28:23;;;;;;;6.80;5.03;;;9.90;99.90;9.20;96775.00;;;;5086901;28;20214;-68
2021/10/04 00:31:12;;;;;;;5.73;3.87;;;9.80;99.90;9.20;96779.00;;;;5085644;28;20219;-68
2021/10/04 00:34:01;;;;;;;5.83;4.03;;;9.70;99.90;9.40;96793.00;;;;5086856;28;20264;-68
2021/10/04 00:36:51;;;;;;;6.07;4.40;;;9.80;99.90;9.50;96790.00;;;;5085990;28;20203;-68
2021/10/04 00:39:40;;;;;;;5.90;3.90;;;9.80;99.90;9.40;96789.00;;;;5084515;28;20206;-68
2021/10/04 00:42:29;;;;;;;6.30;4.67;;;9.80;99.90;9.20;96782.00;;;;5074395;28;20690;-68
2021/10/04 00:45:19;;;;;;;4.73;3.83;;;9.70;99.90;9.20;96786.00;;;;5087151;28;20595;-68
2021/10/04 00:48:08;;;;;;;9.10;4.20;;;9.70;99.90;9.30;96790.00;;;;5086601;28;20214;-68
2021/10/04 00:50:57;;;;;;;6.33;4.90;;;9.60;99.90;9.40;96773.00;;;;5087333;28;20199;-68
2021/10/04 00:53:48;;;;;;;11.70;5.43;;;9.60;99.90;9.30;96776.00;;;;5075673;28;20229;-68
2021/10/04 00:56:37;;;;;;;6.80;4.97;;;9.60;99.90;9.00;96785.00;;;;5085660;28;20207;-68
2021/10/04 00:59:26;;;;;;;6.07;4.73;;;9.60;99.90;9.00;96791.00;;;;5083754;28;20191;-68
2021/10/04 01:02:15;;;;;;;5.27;4.23;;;9.50;99.90;9.20;96781.00;;;;5085513;28;20215;-68
2021/10/04 01:05:05;;;;;;;6.53;4.33;;;9.50;99.90;9.30;96779.00;;;;5085339;28;20238;-68
2021/10/04 01:07:54;;;;;;;5.90;4.40;;;9.60;99.90;9.00;96784.00;;;;5084716;28;20229;-68
2021/10/04 01:10:44;;;;;;;5.53;4.23;;;9.50;99.90;9.20;96768.00;;;;5084498;28;20713;-68
2021/10/04 01:13:33;;;;;;;7.30;4.77;;;9.50;99.90;9.10;96774.00;;;;5074604;28;20701;-68
2021/10/04 01:16:22;;;;;;;4.90;4.37;;;9.50;99.90;8.90;96783.00;;;;5072684;28;20568;-67
2021/10/04 01:19:11;;;;;;;4.73;3.83;;;9.40;99.90;8.80;96776.00;;;;5084245;28;20608;-68
2021/10/04 01:22:01;;;;;;;5.07;4.57;;;9.30;99.90;8.60;96780.00;;;;5084757;28;20222;-68
2021/10/04 01:24:50;;;;;;;7.17;4.33;;;9.30;99.90;8.80;96779.00;;;;5075400;28;20227;-67
2021/10/04 01:27:41;;;;;;;6.23;5.60;;;9.20;99.90;8.90;96775.00;;;;5084987;28;20203;-68
2021/10/04 01:30:33;;;;;;;6.07;4.83;;;9.20;99.90;8.90;96769.00;;;;5084430;28;20191;-68
2021/10/04 01:33:22;;;;;;;5.47;4.23;;;9.20;99.90;8.80;96781.00;;;;5085256;28;20634;-68
2021/10/04 01:36:11;;;;;;;6.23;4.73;;;9.20;99.90;8.80;96779.00;;;;5084491;28;20207;-68
2021/10/04 01:39:01;;;;;;;5.50;4.67;;;9.20;99.90;9.00;96788.00;;;;5085023;28;20282;-68
2021/10/04 01:41:50;;;;;;;6.13;4.27;;;9.30;99.90;9.10;96773.00;;;;5084886;28;20253;-68
2021/10/04 01:44:39;;;;;;;11.73;4.63;;;9.40;99.90;8.70;96772.00;;;;5084314;28;20207;-67
2021/10/04 01:47:27;;;;;;;6.13;4.53;;;9.30;99.90;8.50;96770.00;;;;5083121;28;20204;-67
2021/10/04 01:50:18;;;;;;;6.40;4.43;;;9.20;99.90;8.70;96779.00;;;;5084250;28;20199;-68
2021/10/04 01:53:09;;;;;;;7.10;4.60;;;9.20;99.90;8.80;96777.00;;;;5084850;28;20511;-68
2021/10/04 01:56:00;;;;;;;6.93;4.37;;;9.10;99.90;8.80;96763.00;;;;5084817;28;20203;-68
2021/10/04 01:58:49;;;;;;;8.57;4.63;;;9.20;99.90;8.90;96779.00;;;;5084138;28;20202;-67
2021/10/04 02:01:38;;;;;;;6.83;4.87;;;9.20;99.90;9.00;96781.00;;;;5055847;28;20219;-68
2021/10/04 02:04:27;;;;;;;7.10;4.97;;;9.20;99.90;9.10;96778.00;;;;5064741;28;20207;-68
2021/10/04 02:07:16;;;;;;;6.47;4.93;;;9.30;99.90;8.90;96770.00;;;;5084502;28;20553;-68
2021/10/04 02:10:07;;;;;;;7.20;4.83;;;9.30;99.90;8.70;96776.00;;;;5085690;28;20587;-67
2021/10/04 02:13:02;;;;;;;5.20;4.23;;;9.20;99.90;8.70;96777.00;;;;5088891;28;20227;-68
2021/10/04 02:15:51;;;;;;;6.23;4.50;;;9.20;99.90;8.60;96779.00;;;;5075629;28;20393;-68
2021/10/04 02:18:40;;;;;;;9.37;5.07;;;9.20;99.90;8.50;96773.00;;;;5088996;28;20210;-68
2021/10/04 02:21:29;;;;;;;4.53;3.70;;;9.00;99.90;8.60;96779.00;;;;5088142;28;20685;-68
2021/10/04 02:24:18;;;;;;;5.13;4.13;;;9.00;99.90;8.10;96767.00;;;;5089390;28;20662;-68
2021/10/04 02:27:06;;;;;;;6.70;5.03;;;8.90;99.90;8.30;96778.00;;;;5088002;28;20598;-67
2021/10/04 02:29:57;;;;;;;4.93;4.07;;;8.90;99.90;8.40;96769.00;;;;5088570;28;20658;-67
2021/10/04 02:32:46;;;;;;;4.83;4.33;;;8.90;99.90;8.40;96769.00;;;;5089080;28;20234;-68
2021/10/04 02:35:35;;;;;;;6.40;4.93;;;8.90;99.90;8.50;96766.00;;;;5088710;28;20210;-68
2021/10/04 02:38:24;;;;;;;5.70;4.67;;;8.90;99.90;8.60;96781.00;;;;5088085;28;20195;-67
2021/10/04 02:41:13;;;;;;;5.80;5.03;;;8.90;99.90;8.70;96774.00;;;;5088311;28;20234;-68
2021/10/04 02:44:01;;;;;;;6.97;3.97;;;8.90;99.90;8.70;96776.00;;;;5074463;28;20210;-67
2021/10/04 02:46:52;;;;;;;5.23;4.23;;;9.00;99.90;8.30;96776.00;;;;5086499;28;20219;-68
2021/10/04 02:49:41;;;;;;;10.40;5.00;;;8.90;99.90;8.30;96776.00;;;;5087082;28;20199;-67
2021/10/04 02:52:29;;;;;;;5.53;3.80;;;8.90;99.90;8.40;96780.00;;;;5086977;28;20320;-68
2021/10/04 02:55:19;;;;;;;7.33;4.47;;;8.80;99.90;8.60;96785.00;;;;5088328;28;20199;-67
2021/10/04 02:58:08;;;;;;;5.00;4.50;;;8.90;99.90;8.60;96781.00;;;;5088281;28;20207;-68
2021/10/04 03:00:57;;;;;;;4.90;3.83;;;8.90;99.90;8.50;96780.00;;;;5087208;28;20199;-68
2021/10/04 03:03:47;;;;;;;5.43;4.17;;;8.90;99.90;8.50;96772.00;;;;5089121;28;20580;-67
2021/10/04 03:06:36;;;;;;;5.87;4.20;;;8.90;99.90;8.30;96777.00;;;;5089337;28;20510;-67
2021/10/04 03:09:25;;;;;;;5.53;4.17;;;8.80;99.90;8.10;96785.00;;;;5088299;28;20217;-68
2021/10/04 03:12:14;;;;;;;4.33;3.70;;;8.70;99.90;8.10;96771.00;;;;5089435;28;20223;-67
2021/10/04 03:15:04;;;;;;;5.33;4.17;;;8.60;99.90;7.90;96775.00;;;;5080858;28;20557;-68
2021/10/04 03:17:53;;;;;;;5.20;4.57;;;8.60;99.90;8.10;96775.00;;;;5086774;28;20207;-67
2021/10/04 03:20:43;;;;;;;5.13;4.63;;;8.50;99.90;8.30;96773.00;;;;5088288;28;20203;-67
2021/10/04 03:23:32;;;;;;;5.30;4.17;;;8.60;99.90;8.30;96775.00;;;;5088678;28;20195;-67
2021/10/04 03:26:21;;;;;;;5.77;4.77;;;8.60;99.90;8.00;96778.00;;;;5088958;28;20693;-67
2021/10/04 03:29:10;;;;;;;4.27;3.67;;;8.60;99.90;8.00;96778.00;;;;5089259;28;20203;-68
2021/10/04 03:31:59;;;;;;;4.53;4.13;;;8.50;99.90;8.00;96777.00;;;;5088509;28;20229;-69
2021/10/04 03:34:48;;;;;;;6.47;4.57;;;8.50;99.90;8.20;96777.00;;;;5088972;28;20196;-68
2021/10/04 03:37:38;;;;;;;5.90;4.97;;;8.50;99.90;8.30;96779.00;;;;5077695;28;20222;-68
2021/10/04 03:40:27;;;;;;;10.97;5.17;;;8.50;99.90;8.30;96788.00;;;;5087364;28;20203;-69
2021/10/04 03:43:16;;;;;;;7.67;5.00;;;8.60;99.90;8.40;96781.00;;;;5088533;28;20578;-69
2021/10/04 03:46:05;;;;;;;5.63;4.50;;;8.70;99.90;8.30;96776.00;;;;5083411;28;20214;-69
2021/10/04 03:48:54;;;;;;;5.63;4.20;;;8.70;99.90;7.90;96772.00;;;;5085849;28;20667;-69
2021/10/04 03:51:43;;;;;;;10.27;5.30;;;8.60;99.90;8.00;96784.00;;;;5086721;28;20716;-68
2021/10/04 03:54:33;;;;;;;7.43;5.63;;;8.50;99.90;8.20;96779.00;;;;5087596;28;20199;-69
2021/10/04 03:57:22;;;;;;;7.43;4.53;;;8.50;99.90;7.90;96781.00;;;;5086269;28;20219;-69
2021/10/04 04:00:14;;;;;;;5.30;4.17;;;8.50;99.90;7.80;96772.00;;;;5086731;28;20588;-68
2021/10/04 04:03:04;;;;;;;6.37;4.90;;;8.40;99.90;7.80;96787.00;;;;5084403;28;20219;-68
2021/10/04 04:05:53;;;;;;;6.43;4.70;;;8.40;99.90;8.00;96789.00;;;;5084753;28;20217;-69
2021/10/04 04:08:41;;;;;;;6.13;4.53;;;8.40;99.90;7.90;96781.00;;;;5087139;28;20206;-68
2021/10/04 04:11:32;;;;;;;8.80;4.77;;;8.30;99.90;7.90;96772.00;;;;5085007;28;20230;-68
2021/10/04 04:14:22;;;;;;;5.83;4.40;;;8.30;99.90;7.90;96780.00;;;;5075275;28;20195;-69
2021/10/04 04:17:10;;;;;;;7.30;4.83;;;8.30;99.90;8.00;96782.00;;;;5082419;28;20215;-68
2021/10/04 04:19:59;;;;;;;8.83;5.23;;;8.30;99.90;8.00;96785.00;;;;5080405;28;20188;-68
2021/10/04 04:22:48;;;;;;;5.27;3.93;;;8.30;99.90;7.70;96780.00;;;;5086708;28;20219;-69
2021/10/04 04:25:37;;;;;;;6.97;5.07;;;8.30;99.90;7.90;96782.00;;;;5087196;28;20195;-69
2021/10/04 04:28:27;;;;;;;6.40;4.17;;;8.30;99.90;7.90;96786.00;;;;5086907;28;20699;-68
2021/10/04 04:31:16;;;;;;;5.33;4.10;;;8.30;99.90;7.80;96784.00;;;;5083959;28;20344;-68
2021/10/04 04:34:05;;;;;;;5.30;4.83;;;8.30;99.90;7.90;96787.00;;;;5083002;28;20211;-69
2021/10/04 04:36:54;;;;;;;8.53;4.73;;;8.30;99.90;7.90;96798.00;;;;5077385;28;20203;-69
2021/10/04 04:39:43;;;;;;;7.97;5.30;;;8.30;99.90;7.80;96795.00;;;;5083941;28;20234;-69
2021/10/04 04:42:32;;;;;;;5.50;4.77;;;8.30;99.90;7.90;96798.00;;;;5083440;28;20230;-69
2021/10/04 04:45:23;;;;;;;5.43;4.00;;;8.30;99.90;7.80;96788.00;;;;5086183;28;20211;-69
2021/10/04 04:48:12;;;;;;;7.17;4.27;;;8.30;99.90;7.80;96784.00;;;;5086064;28;20234;-69
2021/10/04 04:51:01;;;;;;;7.13;5.20;;;8.30;99.90;7.70;96782.00;;;;5086638;28;20238;-68
2021/10/04 04:53:49;;;;;;;12.07;4.23;;;8.20;99.90;7.70;96788.00;;;;5086693;28;20234;-68
2021/10/04 04:56:39;;;;;;;6.63;5.47;;;8.20;99.90;7.70;96788.00;;;;5086511;28;20252;-68
2021/10/04 04:59:28;;;;;;;7.20;4.77;;;8.20;99.90;7.50;96793.00;;;;5085793;28;20576;-68
2021/10/04 05:02:19;;;;;;;3.73;3.37;;;8.20;99.90;7.50;96794.00;;;;5086946;28;20234;-68
2021/10/04 05:05:09;;;;;;;6.03;4.73;;;8.10;99.90;7.00;96798.00;;;;5086910;28;20199;-69
2021/10/04 05:07:58;;;;;;;7.40;4.47;;;8.00;99.90;7.20;96786.00;;;;5086033;28;20578;-68
2021/10/04 05:10:47;;;;;;;5.33;4.70;;;7.90;99.90;7.10;96796.00;;;;5086074;28;20207;-69
2021/10/04 05:13:36;;;;;;;8.40;4.60;;;7.80;99.90;7.50;96801.00;;;;5085922;28;20199;-69
2021/10/04 05:16:25;;;;;;;7.93;4.33;;;7.90;99.90;7.70;96804.00;;;;5071937;28;20199;-70
2021/10/04 05:19:15;;;;;;;6.97;4.90;;;8.00;99.90;7.80;96806.00;;;;5085888;28;20203;-70
2021/10/04 05:22:04;;;;;;;7.00;5.30;;;8.10;99.90;7.70;96819.00;;;;5086290;28;20234;-69
2021/10/04 05:24:53;;;;;;;6.50;5.13;;;8.20;99.90;7.80;96813.00;;;;5085811;28;20685;-70
2021/10/04 05:27:42;;;;;;;6.90;5.80;;;8.20;99.90;7.90;96805.00;;;;5084535;28;20227;-69
2021/10/04 05:30:31;;;;;;;6.13;5.03;;;8.20;99.90;7.80;96801.00;;;;5085253;28;20594;-70
2021/10/04 05:33:20;;;;;;;5.47;4.67;;;8.20;99.90;7.90;96806.00;;;;5086175;28;21052;-69
2021/10/04 05:36:10;;;;;;;7.50;5.07;;;8.30;99.90;8.10;96813.00;;;;5082894;28;20203;-69
2021/10/04 05:39:01;;;;;;;8.33;6.33;;;8.30;99.90;8.40;96816.00;;;;5085573;28;20218;-69
2021/10/04 05:41:50;;;;;;;5.30;4.80;;;8.40;99.90;8.50;96813.00;;;;5085850;28;20220;-69
2021/10/04 05:44:39;;;;;;;6.43;5.07;;;8.60;99.90;8.40;96800.00;;;;5085695;28;20203;-69
2021/10/04 05:47:28;;;;;;;8.27;5.30;;;8.70;99.90;8.40;96797.00;;;;5084861;28;20589;-68
2021/10/04 05:50:17;;;;;;;6.60;6.00;;;8.70;99.90;8.10;96806.00;;;;5085017;28;20697;-70
2021/10/04 05:53:07;;;;;;;5.87;4.87;;;8.70;99.90;8.10;96803.00;;;;5084956;28;20211;-68
2021/10/04 05:55:56;;;;;;;8.80;5.17;;;8.60;99.90;8.20;96809.00;;;;5085166;28;20211;-68
2021/10/04 05:58:45;;;;;;;6.97;5.20;;;8.60;99.90;8.30;96807.00;;;;5085920;28;20207;-70
2021/10/04 06:01:34;;;;;;;8.00;5.57;;;8.70;99.90;8.50;96802.00;;;;5085139;28;20242;-70
2021/10/04 06:04:23;;;;;;;9.83;6.00;;;8.70;99.90;8.50;96806.00;;;;5085080;28;20603;-69
2021/10/04 06:07:12;;;;;;;7.27;5.63;;;8.80;99.90;8.60;96809.00;;;;5086103;28;20223;-69
2021/10/04 06:10:03;;;;;;;6.50;5.03;;;8.90;99.90;8.80;96807.00;;;;5083948;28;20207;-69
2021/10/04 06:12:52;;;;;;;5.73;4.90;;;9.00;99.90;8.50;96807.00;;;;5084051;28;20714;-71
2021/10/04 06:15:41;;;;;;;5.73;4.50;;;9.00;99.90;8.40;96816.00;;;;5071885;28;20204;-70
2021/10/04 06:18:30;;;;;;;5.87;5.27;;;9.00;99.90;8.50;96819.00;;;;5085568;28;20647;-69
2021/10/04 06:21:19;;;;;;;6.90;4.67;;;8.90;99.90;8.70;96816.00;;;;5084624;28;20219;-69
2021/10/04 06:24:08;;;;;;;6.77;5.30;;;9.00;99.90;8.90;96826.00;;;;5086099;28;20238;-68
2021/10/04 06:26:58;;;;;;;10.73;7.63;;;9.10;99.90;9.40;96816.00;;;;5078287;28;20203;-70
2021/10/04 06:29:47;;;;;;;8.97;5.63;;;9.30;99.90;9.60;96823.00;;;;5081923;28;20210;-69
2021/10/04 06:32:36;;;;;;;6.77;5.23;;;9.60;99.90;9.40;96830.00;;;;5084190;28;20235;-69
2021/10/04 06:35:25;;;;;;;6.07;4.10;;;9.70;99.90;9.40;96830.00;;;;5084533;28;20203;-69
2021/10/04 06:38:14;;;;;;;5.43;4.60;;;9.80;99.90;9.50;96828.00;;;;5084690;28;20222;-68
2021/10/04 06:41:03;;;;;;;7.80;6.00;;;9.80;99.90;9.60;96835.00;;;;5073005;28;20227;-68
2021/10/04 06:43:53;;;;;;;7.23;5.30;;;9.80;99.90;9.60;96838.00;;;;5084684;28;20192;-68
2021/10/04 06:46:42;;;;;;;5.70;4.30;;;9.90;99.90;9.60;96843.00;;;;5082935;28;20207;-69
2021/10/04 06:49:31;;;;;;;6.80;5.13;;;9.90;99.90;9.80;96840.00;;;;5075559;28;20220;-68
2021/10/04 06:52:20;;;;;;;8.73;5.30;;;10.00;99.90;10.10;96842.00;;;;5078146;28;20732;-70
2021/10/04 06:55:11;;;;;;;6.67;5.60;;;10.10;99.90;10.40;96846.00;;;;5084029;28;20203;-68
2021/10/04 06:58:00;;;;;;;7.10;5.00;;;10.30;99.90;10.70;96847.00;;;;5088793;28;20203;-68
2021/10/04 07:00:50;;;;;;;13.33;5.93;;;10.50;99.90;10.80;96847.00;;;;5084703;28;20195;-68
2021/10/04 07:03:39;;;;;;;9.13;5.47;;;10.70;99.90;11.10;96845.00;;;;5088810;28;20207;-69
2021/10/04 07:06:28;;;;;;;8.60;5.37;;;;;11.20;96851.00;;;;5089000;28;20206;-68
2021/10/04 07:09:17;;;;;;;11.00;6.63;;;11.00;99.90;11.10;96847.00;;;;5080734;28;20230;-68
2021/10/04 07:12:06;;;;;;;7.13;5.30;;;11.20;99.90;11.20;96849.00;;;;5079589;28;20227;-68
2021/10/04 07:14:57;;;;;;;6.80;5.37;;;11.30;99.90;11.60;96850.00;;;;5085937;28;20252;-70
2021/10/04 07:17:47;;;;;;;6.63;5.13;;;11.40;99.90;11.80;96848.00;;;;5087348;28;20207;-69
2021/10/04 07:20:36;;;;;;;8.80;5.90;;;11.60;99.90;12.20;96852.00;;;;5082394;28;20226;-69
2021/10/04 07:23:25;;;;;;;8.77;5.40;;;11.80;99.90;12.60;96860.00;;;;5088203;28;20199;-69
2021/10/04 07:26:14;;;;;;;9.30;5.50;;;12.40;99.90;13.00;96861.00;;;;5088107;28;20203;-69
2021/10/04 07:29:04;;;;;;;8.33;6.17;;;12.40;99.90;13.50;96850.00;;;;5086266;28;20316;-69
2021/10/04 07:31:53;;;;;;;8.43;4.43;;;12.80;99.90;13.50;96846.00;;;;5087885;28;20231;-69
2021/10/04 07:34:43;;;;;;;8.27;4.40;;;13.10;99.90;13.70;96852.00;;;;5075846;28;20211;-69
2021/10/04 07:37:32;;;;;;;7.40;4.87;;;13.30;99.90;13.60;96846.00;;;;5076216;28;20689;-69
2021/10/04 07:40:23;;;;;;;6.67;4.77;;;13.60;99.90;13.90;96855.00;;;;5080440;28;20217;-68
2021/10/04 07:43:12;;;;;;;4.70;4.30;;;13.70;99.90;14.20;96850.00;;;;5088368;28;20203;-69
2021/10/04 07:46:04;;;;;;;7.07;4.33;;;13.90;99.90;14.40;96848.00;;;;5077417;28;20211;-69
2021/10/04 07:48:53;;;;;;;6.50;4.20;;;14.00;99.90;14.20;96846.00;;;;5087444;28;20238;-68
2021/10/04 07:51:43;;;;;;;6.40;5.27;;;14.20;99.90;14.30;96858.00;;;;5088880;28;20565;-68
2021/10/04 07:54:32;;;;;;;7.90;4.10;;;14.30;99.90;14.50;96860.00;;;;5089585;28;20558;-69
2021/10/04 07:57:21;;;;;;;7.00;4.30;;;14.40;99.90;15.00;96857.00;;;;5075871;28;20200;-68
2021/10/04 08:00:11;;;;;;;6.60;4.80;;;14.50;99.90;15.20;96854.00;;;;5086844;28;20199;-68
2021/10/04 08:03:00;;;;;;;6.27;4.40;;;14.70;99.90;15.40;96864.00;;;;5084771;28;20222;-69
2021/10/04 08:05:48;;;;;;;7.23;3.83;;;15.00;99.90;15.60;96868.00;;;;5081097;28;20211;-68
2021/10/04 08:08:39;;;;;;;4.77;3.97;;;15.20;99.90;16.00;96872.00;;;;5086868;28;20219;-69
2021/10/04 08:11:28;;;;;;;6.03;4.03;;;15.40;99.90;16.20;96868.00;;;;5085243;28;20281;-68
2021/10/04 08:14:16;;;;;;;8.50;4.60;;;15.70;99.90;16.40;96871.00;;;;5086340;28;20214;-68
2021/10/04 08:17:06;;;;;;;10.33;4.53;;;15.80;99.90;16.70;96862.00;;;;5086124;28;20204;-69
2021/10/04 08:19:54;;;;;;;8.93;4.20;;;16.10;99.90;16.90;96856.00;;;;5077245;28;20195;-69
2021/10/04 08:22:43;;;;;;;6.87;3.87;;;16.30;99.90;17.10;96867.00;;;;5087494;28;20223;-69
2021/10/04 08:25:34;;;;;;;4.83;3.90;;;16.50;99.90;17.30;96867.00;;;;5082405;28;20202;-68
2021/10/04 08:28:23;;;;;;;9.43;4.63;;;16.70;99.90;17.50;96871.00;;;;5088231;28;20219;-70
2021/10/04 08:31:11;;;;;;;8.47;4.30;;;16.90;99.90;17.70;96877.00;;;;5086559;28;20871;-68
2021/10/04 08:34:03;;;;;;;7.70;4.03;;;17.10;99.90;17.80;96877.00;;;;5089851;28;20696;-69
2021/10/04 08:36:52;;;;;;;6.57;4.03;;;17.20;99.90;17.80;96874.00;;;;5085063;28;20277;-68
2021/10/04 08:39:40;;;;;;;5.33;3.23;;;17.40;99.90;18.10;96882.00;;;;5076434;28;20226;-68
2021/10/04 08:42:32;;;;;;;10.03;3.60;;;17.50;99.90;18.30;96876.00;;;;5086060;28;20230;-67
2021/10/04 08:45:28;;;;;;;5.57;3.60;;;17.70;99.90;18.50;96887.00;;;;5084731;28;20222;-69
2021/10/04 08:48:17;;;;;;;5.67;3.67;;;17.90;99.90;18.60;96879.00;;;;5086603;28;20227;-68
2021/10/04 08:51:08;;;;;;;4.80;3.63;;;18.10;99.90;18.70;96885.00;;;;5085856;28;20229;-68
2021/10/04 08:53:57;;;;;;;5.03;4.10;;;18.20;99.90;19.00;96886.00;;;;5084494;28;20253;-69
2021/10/04 08:56:46;;;;;;;8.20;4.13;;;18.40;99.90;19.00;96874.00;;;;5087232;28;20668;-69
2021/10/04 08:59:37;;;;;;;4.57;3.20;;;18.50;99.90;19.30;96880.00;;;;5078971;28;20199;-69
2021/10/04 09:02:28;;;;;;;4.37;3.40;;;18.70;99.90;19.50;96875.00;;;;5078842;28;20237;-69
2021/10/04 09:05:23;;;;;;;6.07;3.90;;;18.90;99.90;19.80;96877.00;;;;5087230;28;20761;-69
2021/10/04 09:08:14;;;;;;;5.20;3.47;;;19.10;99.90;20.00;96877.00;;;;5086632;28;20211;-69
2021/10/04 09:11:11;;;;;;;6.47;3.47;;;19.30;99.90;20.30;96875.00;;;;5086543;28;20219;-69
2021/10/04 09:14:11;;;;;;;5.50;3.30;;;19.50;99.90;20.60;96877.00;;;;5076933;28;20710;-70
2021/10/04 09:17:05;;;;;;;4.83;3.10;;;19.70;99.90;20.90;96876.00;;;;5083261;28;20199;-69
2021/10/04 09:19:54;;;;;;;6.10;3.00;;;20.00;99.90;21.10;96878.00;;;;5074176;28;20580;-70
2021/10/04 09:22:43;;;;;;;4.80;3.13;;;20.20;99.90;21.20;96882.00;;;;5086405;28;20454;-71
2021/10/04 09:25:40;;;;;;;4.63;2.60;;;20.40;99.90;21.40;96878.00;;;;5081539;28;20199;-67
2021/10/04 09:28:32;;;;;;;5.03;3.20;;;20.60;99.90;21.60;96881.00;;;;5085937;28;20192;-69
2021/10/04 09:31:24;;;;;;;3.67;2.97;;;20.70;99.90;21.60;96879.00;;;;5079239;28;20606;-70
2021/10/04 09:34:16;;;;;;;7.00;3.13;;;21.00;99.90;21.90;96882.00;;;;5089352;28;20658;-70
2021/10/04 09:37:05;;;;;;;4.47;3.13;;;21.10;99.90;21.90;96884.00;;;;5087234;28;20583;-69
2021/10/04 09:39:54;;;;;;;7.03;3.07;;;21.30;99.90;22.10;96880.00;;;;5085411;28;20211;-70
2021/10/04 09:42:42;;;;;;;3.20;3.00;;;21.40;99.90;22.50;96884.00;;;;5082013;28;20222;-69
2021/10/04 09:45:32;;;;;;;6.20;2.80;;;21.60;99.90;22.60;96874.00;;;;5083608;28;20199;-70
2021/10/04 09:48:21;;;;;;;7.70;3.60;;;21.80;99.90;22.70;96872.00;;;;5086066;28;20577;-70
2021/10/04 09:51:16;;;;;;;4.43;3.00;;;21.90;99.90;22.50;96874.00;;;;5085864;28;20242;-69
2021/10/04 09:54:09;;;;;;;3.57;3.10;;;22.10;99.90;22.10;96880.00;;;;5076408;28;20583;-69
2021/10/04 09:56:58;;;;;;;4.43;3.30;;;22.10;99.90;22.80;96873.00;;;;5086079;28;20211;-69
2021/10/04 09:59:47;;;;;;;5.40;2.80;;;22.20;99.90;23.30;96868.00;;;;5084557;28;20203;-69
2021/10/04 10:02:36;;;;;;;5.43;2.87;;;22.30;99.90;23.50;96871.00;;;;5085688;28;20233;-69
2021/10/04 10:05:27;;;;;;;3.70;3.33;;;22.50;99.90;24.00;96871.00;;;;5086318;28;20670;-69
2021/10/04 10:08:17;;;;;;;;;;;22.80;99.90;24.30;96864.00;;;;5086718;28;20047;-69
2021/10/04 10:11:08;;;;;;;7.07;3.40;;;23.00;99.90;24.30;96870.00;;;;5084905;28;20677;-69
2021/10/04 10:13:57;;;;;;;6.15;3.10;;;23.30;99.90;23.60;96870.00;;;;5073836;28;20374;-69
2021/10/04 10:16:50;;;;;;;5.50;3.80;;;23.50;98.20;23.90;96865.00;;;;5081179;28;20203;-69
2021/10/04 10:19:40;;;;;;;3.67;2.70;;;23.50;97.80;24.30;96861.00;;;;5071542;28;20700;-68
2021/10/04 10:22:32;;;;;;;5.97;2.87;;;23.60;97.30;25.20;96857.00;;;;5085401;28;20226;-69
2021/10/04 10:25:35;;;;;;;4.13;2.83;;;23.90;97.90;25.70;96848.00;;;;5079663;28;20200;-69
2021/10/04 10:28:34;;;;;;;4.97;2.60;;;24.30;97.80;25.80;96838.00;;;;5072870;28;20189;-69
2021/10/04 10:31:22;;;;;;;4.60;2.83;;;24.70;95.50;25.00;96848.00;;;;5081636;28;20215;-68
2021/10/04 10:34:11;;;;;;;3.70;2.77;;;25.00;92.30;25.80;96833.00;;;;5092063;28;20209;-68
2021/10/04 10:37:03;;;;;;;5.10;2.37;;;25.20;92.00;26.50;96839.00;;;;5089811;28;20206;-68
2021/10/04 10:39:54;;;;;;;2.80;2.53;;;25.50;92.70;26.70;96836.00;;;;5088870;28;20227;-68
2021/10/04 10:43:01;;;;;;;5.03;2.93;;;25.90;91.50;26.60;96841.00;;;;5086694;28;20583;-68
2021/10/04 10:45:52;;;;;;;2.33;2.13;;;26.10;86.90;26.10;96838.00;;;;5077335;28;20201;-69
2021/10/04 10:48:44;;;;;;;4.33;2.60;;;26.20;85.40;25.60;96833.00;;;;5089514;28;20217;-71
2021/10/04 10:51:33;;;;;;;2.23;2.03;;;26.30;87.10;26.10;96828.00;;;;5089017;28;20225;-69
2021/10/04 10:54:38;;;;;;;2.80;2.50;;;26.00;83.30;27.10;96833.00;;;;5089192;28;20632;-70
2021/10/04 10:58:04;;;;;;;1.80;1.40;;;26.40;85.10;25.30;96818.00;;;;5079597;28;20680;-72
2021/10/04 11:01:20;;;;;;;1.63;1.53;;;25.90;81.80;26.00;96824.00;;;;5078380;28;20201;-70
2021/10/04 11:04:09;;;;;;;2.20;1.50;;;25.80;82.00;26.10;96811.00;;;;5077915;28;20196;-70
2021/10/04 11:06:57;;;;;;;4.50;1.60;;;25.90;81.50;25.30;96813.00;;;;5079338;28;20210;-70
2021/10/04 11:10:06;;;;;;;1.47;1.37;;;25.70;80.20;24.80;96791.00;;;;5082211;28;20596;-73
2021/10/04 11:13:23;;;;;;;2.13;1.37;;;25.20;81.40;25.50;96812.00;;;;5088007;28;20219;-71
2021/10/04 11:16:37;;;;;;;1.67;1.30;;;25.20;83.70;25.30;96803.00;;;;5086377;28;20252;-70
2021/10/04 11:19:31;;;;;;;2.53;1.30;;;25.20;82.20;25.70;96805.00;;;;5087419;28;20697;-70
2021/10/04 11:22:23;;;;;;;1.83;1.43;;;25.40;82.20;25.70;96793.00;;;;5086328;28;20224;-73
2021/10/04 11:25:12;;;;;;;1.90;1.50;;;25.70;82.00;25.40;96797.00;;;;5083525;28;20201;-73
2021/10/04 11:28:00;;;;;;;1.43;1.30;;;25.80;80.10;25.40;96797.00;;;;5079787;28;20200;-73
2021/10/04 11:30:56;;;;;;;2.73;1.37;;;25.40;79.80;26.00;96799.00;;;;5087221;28;20225;-72
2021/10/04 11:33:50;;;;;;;2.20;1.30;;;25.50;80.00;26.50;96788.00;;;;5085285;28;20204;-70
2021/10/04 11:36:42;;;;;;;1.23;1.13;;;25.80;81.40;26.10;96784.00;;;;5087408;28;20213;-72
2021/10/04 11:39:34;;;;;;;3.00;1.47;;;25.90;79.90;26.60;96785.00;;;;5080115;28;20208;-71
2021/10/04 11:42:24;;;;;;;2.83;1.40;;;26.10;78.20;25.90;96764.00;;;;5079770;28;20601;-73
2021/10/04 11:45:13;;;;;;;2.03;1.30;;;26.10;77.00;25.70;96777.00;;;;5085622;28;20681;-73
2021/10/04 11:48:04;;;;;;;2.30;1.43;;;26.10;76.60;26.70;96782.00;;;;5076479;28;20203;-72
2021/10/04 11:50:53;;;;;;;2.83;1.33;;;26.00;79.10;27.00;96784.00;;;;5075392;28;20229;-72
2021/10/04 11:53:43;;;;;;;1.43;1.20;;;26.30;77.10;26.70;96788.00;;;;5088218;28;20686;-74
2021/10/04 11:56:40;;;;;;;1.57;1.33;;;26.60;75.40;28.10;96781.00;;;;5087316;28;20478;-73
2021/10/04 11:59:28;;;;;;;;;;;27.10;75.80;29.10;96767.00;;;;5078927;28;20120;-73
2021/10/04 12:02:18;;;;;;;;;;;27.90;73.00;28.60;96775.00;;;;5082409;28;19920;-72
2021/10/04 12:05:14;;;;;;;;;;;28.20;71.20;27.30;96766.00;;;;5086428;28;20460;-71
2021/10/04 12:08:05;;;;;;;;;;;27.60;68.00;26.60;96771.00;;;;5083732;28;19931;-70
2021/10/04 12:10:56;;;;;;;;;;;27.40;68.80;27.40;96766.00;;;;5068685;28;19920;-70
2021/10/04 12:13:45;;;;;;;;;;;27.50;69.00;28.10;96771.00;;;;5079144;28;19920;-71
2021/10/04 12:16:34;;;;;;;;;;;27.60;70.60;27.40;96760.00;;;;5069161;28;19925;-70
2021/10/04 12:19:22;;;;;;;;;;;27.60;68.70;26.70;96754.00;;;;5084371;28;19920;-71
2021/10/04 12:22:12;;;;;;;;;;;27.30;67.40;26.30;96750.00;;;;5087474;28;19919;-71
2021/10/04 12:25:01;;;;;;;;;;;26.90;68.00;27.00;96752.00;;;;5083980;28;19967;-70
2021/10/04 12:28:00;;;;;;;;;;;26.80;68.90;27.10;96763.00;;;;5077542;28;20298;-68
2021/10/04 12:30:51;;;;;;;;;;;26.80;69.20;27.50;96758.00;;;;5085832;28;19931;-70
2021/10/04 12:33:44;;;;;;;;;;;27.10;68.20;25.50;96758.00;;;;5088002;28;19919;-72
2021/10/04 12:36:41;;;;;;;;;;;26.40;67.80;26.10;96756.00;;;;5086883;28;19946;-72
2021/10/04 12:39:41;;;;;;;;;;;26.30;68.90;25.90;96747.00;;;;5080177;28;19927;-73
2021/10/04 12:42:30;;;;;;;;;;;25.80;70.70;26.20;96758.00;;;;5083729;28;19920;-67
2021/10/04 12:45:19;;;;;;;;;;;26.00;69.60;26.40;96743.00;;;;5086639;28;19939;-74
2021/10/04 12:48:14;;;;;;;;;;;26.10;69.80;26.30;96747.00;;;;5080462;28;19928;-71
2021/10/04 12:51:05;;;;;;;;;;;26.00;70.00;26.20;96761.00;;;;5085150;28;19920;-75